Huvudsida
METAR-TAF:

METAR-TAF

Flygplatser :

Florianópolis-Hercílio Luz International Airport

Florianópolis, Santa Catarina, Brasilien

latitud: 27-40S, longitud: 048-33W, höjd: 5 m

Aktuellt väderrapport

Denna rapport gjordes för 14 minuter sedan, klockan 18:00 UTC
Vind 11 kt från sydost
Temperatur 28°C
Fuktighet 74%
Tryck 1015 hPa
Sikt 10 km eller mer
Spridda moln på en höjd av 2700 ft

METAR: SBFL 161800Z 13011KT 9999 SCT027 28/23 Q1015

Tid: 16:14 (18:14 UTC)

Väderprognos

Denna rapport gjordes för 3 timmar och 44 minuter sedan, klockan 14:30 UTC
Prognos gäller från 16 kl. 18 UTC till 17 kl. 18 UTC
Vind 8 kt från sydost
Sikt 10 km eller mer
Spridda moln på en höjd av 3000 ft
Blir
från 16 kl. 20 UTC till 16 kl. 22 UTC
Vind 8 kt från nord

TAF: SBFL 161430Z 1618/1718 13008KT 9999 SCT030 TN23/1708Z TX31/1718Z BECMG 1620/1622 36008KT RMK PER

Aktuella väderrapporter och prognoser från 4000 flygplatser (METAR- och TAF-rapporter).

De tillgängliga stationerna syns som gula och röda prickar på kartan.

För musen över prickarna för att se namnen på stationerna.

Klicka sedan för att få väderrapporter och prognoser.

För att ändra kartan: Klicka på de gröna knapparna med ett svart kors på för att zooma in; den gröna knappen med ett streck på för att zooma ut; eller på de gröna pilarna för angränsande kartor.


METAR-TAF: